Terminal Aerodrome Forecast
Issued by NWS Knoxville/Tri Cities, TN

Home | Current Version | Previous Version | Text Only | Print | Product List | Glossary On
Versions: 1 2 3 4 5 6 7 8 9 10 11 12 13 14 15 16 17 18 19 20 21 22 23 24 25 26 27 28 29 30 31 32 33 34 35 36 37
000
FTUS44 KMRX 291132
TAFTYS
TAF
KTYS 291132Z 2912/3012 VRB03KT P6SM BKN250
     FM291400 22004KT P6SM SCT080 BKN120
     FM291600 22009KT P6SM VCSH BKN050
     FM292000 23012KT P6SM SCT050 BKN150
     FM300200 31010KT P6SM SCT050 BKN080
     FM300600 30007KT P6SM VCSH BKN040=

USA.gov is the U.S. government's official web portal to all federal, state and local government web resources and services.